This is the latest recevied weather packets stored in our database for station/object EB1GOD-1. If no packets are shown the sender has not sent any weather packets the latest 1 day(s).
| Time | Temp. | Humidity | Pressure | Rain* | Wind** | Luminosity | Snow |
|---|---|---|---|---|---|---|---|
| 1777771037 | 12.22° C | 87% | 1151.6 hPa | - | - | - | - |
| 1777770137 | 12.78° C | 87% | 1151.7 hPa | - | - | - | - |
| 1777769236 | 13.33° C | 84% | 1151.9 hPa | - | - | - | - |
| 1777768336 | 13.33° C | 84% | 1151.9 hPa | - | - | - | - |
| 1777767436 | 13.33° C | 84% | 1152.1 hPa | - | - | - | - |
| 1777766536 | 13.33° C | 85% | 1152.2 hPa | - | - | - | - |
| 1777765636 | 12.78° C | 88% | 1152.2 hPa | - | - | - | - |
| 1777764736 | 12.78° C | 88% | 1152.3 hPa | - | - | - | - |
| 1777762936 | 13.89° C | 84% | 1152.4 hPa | - | - | - | - |
| 1777762036 | 14.44° C | 82% | 1152.5 hPa | - | - | - | - |
| 1777761136 | 13.89° C | 84% | 1152.7 hPa | - | - | - | - |
| 1777760236 | 13.89° C | 84% | 1152.8 hPa | - | - | - | - |
| 1777759336 | 13.33° C | 86% | 1152.9 hPa | - | - | - | - |
| 1777758436 | 13.89° C | 84% | 1152.8 hPa | - | - | - | - |
| 1777756635 | 14.44° C | 82% | 1153 hPa | - | - | - | - |
| 1777755735 | 13.33° C | 83% | 1153.2 hPa | - | - | - | - |
| 1777754835 | 12.78° C | 87% | 1153 hPa | - | - | - | - |
| 1777753935 | 14.44° C | 81% | 1152.8 hPa | - | - | - | - |
| 1777753035 | 15° C | 81% | 1152.6 hPa | - | - | - | - |
| 1777752137 | 15.56° C | 80% | 1152.4 hPa | - | - | - | - |
| 1777751235 | 15° C | 81% | 1152.5 hPa | - | - | - | - |
| 1777750335 | 15.56° C | 79% | 1152.4 hPa | - | - | - | - |
| 1777749435 | 15.56° C | 79% | 1152.4 hPa | - | - | - | - |
| 1777748535 | 14.44° C | 87% | 1152.5 hPa | - | - | - | - |
| 1777747635 | 16.11° C | 77% | 1152.3 hPa | - | - | - | - |
* Rain since midnight (hover to see other rain measurements)
** Current wind speed in m/s (hover to see current wind gust speed)